Terminal Aerodrome Forecast
Issued by NWS Sterling, VA

Current Version | Previous Version | Text Only | Print | Product List | Glossary Off
Versions: 1 2 3 4 5 6 7 8 9 10 11 12 13 14 15 16 17 18 19 20 21 22 23 24 25 26 27 28

000
FTUS41 KLWX 012119 AAC
TAFDCA
TAF AMD
KDCA 012119Z 0121/0218 VRB04KT P6SM VCTS BKN050CB
      TEMPO 0121/0122 VRB15KT 3SM -TSRA
     FM020100 03005KT 6SM -SHRA BKN025 OVC050
     FM020600 35005KT 5SM -SHRA BR OVC015
     FM020900 35005KT 5SM -SHRA BR BKN008 OVC015
     FM021400 01007KT 6SM -SHRA OVC015=

USA.gov is the U.S. government's official web portal to all federal, state and local government web resources and services.